Portada
METAR-TAF:

METAR-TAF

Aeroports :

Malé, Maldives

latitud: 04-12N, longitud: 073-32E, altitud: 2 m

Observació

L'informe es va fer fa 1 hora i 12 minuts, a les 20:00 UTC
Vent 12 kt del Sud-Oest
Temperatura 28°C
Humitat 79%
Pressió 1010 hPa
Visibilitat 10 km o més
Escasses núvols a una alçada de 1700 ft, Cumulus congestus.
Cel ennuvolat a una alçada de 26000 ft

METAR: VRMM 142000Z 23012KT 9999 FEW017TCU BKN260 28/24 Q1010 TEMPO 5000 -SHRA FEW018CB

Hora: 02:12 (21:12 UTC)

Pronòstic

L'informe es va fer fa 4 hores i 12 minuts, a les 17:00 UTC
Pronòstic vàlid del 14 a les 18 UTC al 15 a les 24 UTC
Vent 14 kt del Oest/Sud-Oest
Visibilitat 10 km o més
Escasses núvols a una alçada de 1800 ft, Cumulus congestus.
Temporalment
l' 14 a les 20 UTC al 15 a les 02 UTC
Visibilitat: 5000 m
Escasses núvols a una alçada de 1700 ft, Cumulonimbus.
tempesta, pluja

TAF: VRMM 141700Z 1418/1524 25014KT 9999 FEW018TCU TEMPO 1420/1502 5000 -TSRA FEW017CB

Observacions i pronòstics meteorològics de més de 4000 aeroports (METAR i TAF).

Les estacions disponibles són els punts grocs i vermells al mapa.

Posi el ratolí al punt desitjat per veure el nom de l'estació.

Feu clic per veure les observacions i els pronòstics meteorològics.

Per canviar el mapa: feu clic els botons verds amb una creu de color negre per apropar; al botó verd amb un guió per allunyar la imatge; o en les fletxes verdes per a mapes adjacents.


METAR-TAF: